Air Supply — WDE6069 — position and weather

sailwx.info

Track history (hours):
 
Tides and Currents Weather Stations Pressure Air Temp Water Temp Dewpoint Dewpoint Depression Visibility Wind Speed Wind Dir Waves Ship Positions

Air Supply

Owner: Knowles, Clay A, Fruita, CO. More information available from US FCC via Universal Licensing System and Coast Guard Vessel Documentation Center.

Last reported at 2018-Feb-19 00:18 UTC. Time now 2018-Feb-19 07:52 UTC.
Position N 29°51' W 091°56'.

Length 36 m; draft 3 m.

Type: Towing. MMSI: 367375720.

Date/timePositionNaut miles runAvg speedWind from/ knotsBaromVisibWave heightAir tempDewpointWater temp
2018-Feb-19 00:18N 29°51' W 091°56'2 4.6
2018-Feb-18 23:51N 29°50' W 091°58'2 4.8
2018-Feb-18 23:30N 29°50' W 091°60'2 4.7
2018-Feb-18 23:00N 29°49' W 092°02'2 4.8
2018-Feb-18 22:30N 29°48' W 092°05'2 3.7
2018-Feb-18 22:00N 29°47' W 092°07'1 2.8
2018-Feb-18 21:30N 29°47' W 092°08'3 5.2
2018-Feb-18 21:00N 29°47' W 092°11'3 5.4
2018-Feb-18 20:30N 29°48' W 092°14'3 5.5
2018-Feb-18 20:00N 29°49' W 092°17'2 4.9
2018-Feb-18 19:30N 29°50' W 092°19'35 3.5
2018-Feb-18 09:22N 29°56' W 092°60'2 4.3
2018-Feb-18 09:00N 29°56' W 093°02'2 3.5
2018-Feb-18 08:31N 29°56' W 093°03'0 0.0
2018-Feb-18 07:58N 29°56' W 093°03'0 0.0
2018-Feb-18 07:30N 29°56' W 093°03'0 0.0
2018-Feb-18 07:01N 29°56' W 093°03'0 0.0
2018-Feb-18 06:30N 29°56' W 093°03'0 0.0
2018-Feb-18 06:01N 29°56' W 093°03'0 0.7
2018-Feb-18 05:30N 29°56' W 093°04'2 4.3
2018-Feb-18 05:00N 29°56' W 093°06'2 3.0
2018-Feb-18 04:29N 29°56' W 093°08'0 1.0
2018-Feb-18 04:01N 29°56' W 093°09'2 3.8
2018-Feb-18 03:31N 29°57' W 093°11'2 4.5
2018-Feb-18 03:00N 29°59' W 093°12'2 4.2
2018-Feb-18 02:31N 30°01' W 093°14'2 3.7
2018-Feb-18 02:00N 30°02' W 093°15'1 2.7
2018-Feb-18 01:31N 30°03' W 093°16'1 2.0
2018-Feb-18 01:00N 30°04' W 093°16'2 3.1
2018-Feb-18 00:31N 30°05' W 093°17'2 3.3
2018-Feb-18 00:00N 30°06' W 093°19'2 3.9
2018-Feb-17 23:31N 30°04' W 093°21'1 2.9
2018-Feb-17 23:01N 30°04' W 093°22'2 3.5
2018-Feb-17 22:30N 30°04' W 093°24'2 3.9
2018-Feb-17 22:00N 30°04' W 093°27'3 5.1
2018-Feb-17 21:30N 30°04' W 093°30'3 5.2
2018-Feb-17 21:00N 30°04' W 093°33'3 5.2
2018-Feb-17 20:30N 30°04' W 093°36'2 4.4
2018-Feb-17 20:00N 30°04' W 093°38'2 3.8
2018-Feb-17 19:30N 30°04' W 093°40'3 5.0
2018-Feb-17 19:00N 30°03' W 093°43'2 4.9
2018-Feb-17 18:30N 30°01' W 093°45'2 4.7
2018-Feb-17 18:00N 29°60' W 093°47'2 4.9
2018-Feb-17 17:30N 29°59' W 093°49'2 3.5
2018-Feb-17 17:00N 29°58' W 093°51'2 4.3
2018-Feb-17 16:30N 29°59' W 093°54'3 5.4
2018-Feb-17 16:00N 29°60' W 093°57'2 4.4
2018-Feb-17 15:31N 30°01' W 093°59'0 0.7
2018-Feb-17 15:00N 30°01' W 093°59'0 0.3
2018-Feb-17 14:30N 30°01' W 093°58'0 0.0
2018-Feb-17 14:00N 30°01' W 093°58'0 0.0
2018-Feb-17 13:30N 30°01' W 093°58'0 0.0
2018-Feb-17 12:59N 30°01' W 093°58'0 0.0
2018-Feb-17 12:30N 30°01' W 093°58'0 0.0
2018-Feb-17 12:00N 30°01' W 093°58'0 0.0
2018-Feb-17 11:30N 30°01' W 093°58'0 0.0
2018-Feb-17 11:00N 30°01' W 093°58'0 0.0
2018-Feb-17 10:30N 30°01' W 093°58'0 0.0
2018-Feb-17 10:00N 30°01' W 093°58'0 0.0
2018-Feb-17 09:30N 30°01' W 093°58'0 0.0
2018-Feb-17 09:00N 30°01' W 093°58'0 0.0
2018-Feb-17 08:30N 30°01' W 093°58'0 0.0
2018-Feb-17 08:00N 30°01' W 093°58'0 0.0
2018-Feb-17 07:30N 30°01' W 093°58'0 0.0
2018-Feb-17 07:00N 30°01' W 093°58'0 0.0
2018-Feb-17 06:30N 30°01' W 093°58'0 0.0
2018-Feb-17 06:00N 30°01' W 093°58'0 0.0
2018-Feb-17 05:30N 30°01' W 093°58'0 0.0
2018-Feb-17 05:00N 30°01' W 093°58'0 0.0
2018-Feb-17 04:30N 30°01' W 093°58'0 0.0
2018-Feb-17 04:00N 30°01' W 093°58'0 0.0
2018-Feb-17 03:30N 30°01' W 093°58'0 0.0
2018-Feb-17 03:00N 30°01' W 093°58'0 0.0
2018-Feb-17 02:30N 30°01' W 093°58'0 0.0
2018-Feb-17 02:00N 30°01' W 093°58'0 0.0
2018-Feb-17 01:30N 30°01' W 093°58'0 0.0
2018-Feb-17 01:00N 30°01' W 093°58'0 0.0
2018-Feb-17 00:30N 30°01' W 093°58'0 0.0
2018-Feb-17 00:00N 30°01' W 093°58'0 0.0
2018-Feb-16 23:29N 30°01' W 093°58'0 0.0
2018-Feb-16 23:00N 30°01' W 093°58'0 0.0
2018-Feb-16 22:30N 30°01' W 093°58'0 0.0
2018-Feb-16 22:00N 30°01' W 093°58'0 0.0
2018-Feb-16 21:30N 30°01' W 093°58'0 0.0
2018-Feb-16 21:00N 30°01' W 093°58'0 0.0
2018-Feb-16 20:30N 30°01' W 093°58'0 0.0
2018-Feb-16 20:00N 30°01' W 093°58'0 0.0
2018-Feb-16 19:30N 30°01' W 093°58'0 0.0
2018-Feb-16 19:00N 30°01' W 093°58'0 0.0
2018-Feb-16 18:30N 30°01' W 093°58'0 0.0
2018-Feb-16 18:00N 30°01' W 093°58'0 0.0
2018-Feb-16 17:31N 30°01' W 093°58'0 0.0
2018-Feb-16 17:00N 30°01' W 093°58'0 0.0
2018-Feb-16 16:30N 30°01' W 093°58'0 0.0
2018-Feb-16 16:00N 30°01' W 093°58'0 0.0
2018-Feb-16 15:30N 30°01' W 093°58'0 0.0
2018-Feb-16 15:01N 30°01' W 093°58'0 0.0
2018-Feb-16 14:31N 30°01' W 093°58'0 0.0
2018-Feb-16 14:01N 30°01' W 093°58'0 0.0
2018-Feb-16 13:30N 30°01' W 093°58'0 0.0
2018-Feb-16 13:00N 30°01' W 093°58'0 0.0
2018-Feb-16 12:31N 30°01' W 093°58'0 0.0
2018-Feb-16 12:00N 30°01' W 093°58'0 0.0
2018-Feb-16 11:31N 30°01' W 093°58'0 0.0
2018-Feb-16 11:01N 30°01' W 093°58'0 0.0
2018-Feb-16 10:31N 30°01' W 093°58'0 0.0
2018-Feb-16 10:01N 30°01' W 093°58'0 0.0
2018-Feb-16 09:31N 30°01' W 093°58'0 0.0
2018-Feb-16 09:01N 30°01' W 093°58'0 0.0
2018-Feb-16 08:31N 30°01' W 093°58'0 0.0
2018-Feb-16 07:59N 30°01' W 093°58'0 0.0
2018-Feb-16 07:31N 30°01' W 093°58'0 0.0
2018-Feb-16 07:00N 30°01' W 093°58'0 0.0
2018-Feb-16 06:30N 30°01' W 093°58'0 0.0
2018-Feb-16 06:01N 30°01' W 093°58'0 0.0
2018-Feb-16 05:30N 30°01' W 093°58'0 0.0
2018-Feb-16 05:01N 30°01' W 093°58'0 0.0
2018-Feb-16 04:30N 30°01' W 093°58'0 0.0
2018-Feb-16 04:00N 30°01' W 093°58'0 0.0
2018-Feb-16 03:30N 30°01' W 093°58'0 0.0
2018-Feb-16 03:00N 30°01' W 093°58'0 0.0
2018-Feb-16 02:31N 30°01' W 093°58'0 0.0
2018-Feb-16 01:59N 30°01' W 093°58'0 0.0
2018-Feb-16 01:31N 30°01' W 093°58'0 0.0
2018-Feb-16 01:00N 30°01' W 093°58'0 0.0
2018-Feb-16 00:30N 30°01' W 093°58'0 0.0
2018-Feb-16 00:00N 30°01' W 093°58'0 0.0
2018-Feb-15 23:31N 30°01' W 093°58'0 0.0
2018-Feb-15 23:01N 30°01' W 093°58'0 0.0
2018-Feb-15 22:30N 30°01' W 093°58'0 0.0
2018-Feb-15 22:00N 30°01' W 093°58'0 0.0
2018-Feb-15 21:30N 30°01' W 093°58'0 0.0
2018-Feb-15 21:00N 30°01' W 093°58'0 0.0
2018-Feb-15 20:30N 30°01' W 093°58'0 0.0
2018-Feb-15 20:00N 30°01' W 093°58'0 0.0
2018-Feb-15 19:31N 30°01' W 093°58'0 0.0
2018-Feb-15 19:01N 30°01' W 093°58'0 0.0
2018-Feb-15 18:30N 30°01' W 093°58'0 0.0
2018-Feb-15 18:01N 30°01' W 093°58'0 0.0
2018-Feb-15 17:30N 30°01' W 093°58'0 0.0
2018-Feb-15 17:00N 30°01' W 093°58'0 0.5
2018-Feb-15 16:30N 30°01' W 093°58'0 0.0
2018-Feb-15 16:00N 30°01' W 093°58'1 1.9
2018-Feb-15 15:30N 30°01' W 093°59'0 0.1
2018-Feb-15 15:01N 30°01' W 093°59'0 0.0
2018-Feb-15 14:31N 30°01' W 093°59'0 0.0
2018-Feb-15 14:01N 30°01' W 093°59'0 0.0
2018-Feb-15 13:31N 30°01' W 093°59'0 0.0
2018-Feb-15 13:01N 30°01' W 093°59'0 0.0
2018-Feb-15 12:31N 30°01' W 093°59'0 0.0
2018-Feb-15 12:01N 30°01' W 093°59'0 0.0
2018-Feb-15 11:30N 30°01' W 093°59'0 0.0
2018-Feb-15 11:00N 30°01' W 093°59'0 0.0
2018-Feb-15 10:30N 30°01' W 093°59'0 0.0
2018-Feb-15 10:01N 30°01' W 093°59'0 0.0
2018-Feb-15 09:31N 30°01' W 093°59'0 0.0
2018-Feb-15 09:00N 30°01' W 093°59'0 0.0
2018-Feb-15 08:31N 30°01' W 093°59'0 0.0
2018-Feb-15 08:01N 30°01' W 093°59'0 0.0
2018-Feb-15 07:30N 30°01' W 093°59'0 0.0
2018-Feb-15 07:01N 30°01' W 093°59'0 0.0
2018-Feb-15 06:30N 30°01' W 093°59'0 0.0
2018-Feb-15 06:01N 30°01' W 093°59'0 0.0
2018-Feb-15 05:31N 30°01' W 093°59'0 0.0
2018-Feb-15 05:01N 30°01' W 093°59'0 0.0
2018-Feb-15 04:31N 30°01' W 093°59'0 0.0
2018-Feb-15 04:00N 30°01' W 093°59'0 0.0
2018-Feb-15 03:30N 30°01' W 093°59'0 0.0
2018-Feb-15 03:01N 30°01' W 093°59'0 0.0
2018-Feb-15 02:30N 30°01' W 093°59'0 0.0
2018-Feb-15 02:00N 30°01' W 093°59'0 0.0
2018-Feb-15 01:30N 30°01' W 093°59'0 0.0
2018-Feb-15 01:01N 30°01' W 093°59'0 0.0
2018-Feb-15 00:30N 30°01' W 093°59'0 0.0
2018-Feb-15 00:01N 30°01' W 093°59'0 0.0
2018-Feb-14 23:31N 30°01' W 093°59'0 0.0
2018-Feb-14 23:01N 30°01' W 093°59'0 0.0
2018-Feb-14 22:31N 30°01' W 093°59'0 0.0
2018-Feb-14 22:00N 30°01' W 093°59'0 0.0
2018-Feb-14 21:31N 30°01' W 093°59'0 0.0
2018-Feb-14 21:00N 30°01' W 093°59'0 0.0
2018-Feb-14 20:30N 30°01' W 093°59'0 0.0
2018-Feb-14 20:01N 30°01' W 093°59'0 0.0
2018-Feb-14 19:30N 30°01' W 093°59'0 0.1
2018-Feb-14 19:01N 30°01' W 093°59'0 0.1
2018-Feb-14 18:31N 30°01' W 093°59'0 0.0
2018-Feb-14 18:01N 30°01' W 093°59'0 0.0
2018-Feb-14 17:31N 30°01' W 093°59'0 0.0
2018-Feb-14 17:01N 30°01' W 093°59'0 0.0
2018-Feb-14 16:30N 30°01' W 093°59'0 0.0
2018-Feb-14 16:01N 30°01' W 093°59'0 0.0
2018-Feb-14 15:31N 30°01' W 093°59'0 0.3
2018-Feb-14 15:01N 30°01' W 093°59'0 0.3
2018-Feb-14 14:31N 30°01' W 093°59'0 0.2
2018-Feb-14 13:57N 30°01' W 093°59'0 0.0
2018-Feb-14 13:25N 30°01' W 093°59'0 0.0
2018-Feb-14 12:59N 30°01' W 093°59'0 0.0
2018-Feb-14 12:28N 30°01' W 093°59'0 0.0
2018-Feb-14 11:59N 30°01' W 093°59'0 0.0
2018-Feb-14 11:27N 30°01' W 093°59'0 0.0
2018-Feb-14 11:00N 30°01' W 093°59'0 0.0
2018-Feb-14 10:30N 30°01' W 093°59'0 0.0
2018-Feb-14 10:01N 30°01' W 093°59'0 0.0
2018-Feb-14 09:30N 30°01' W 093°59'0 0.0
2018-Feb-14 09:01N 30°01' W 093°59'1 1.4
2018-Feb-14 08:31N 30°01' W 093°59'0 0.2
2018-Feb-14 08:01N 30°01' W 093°59'1 1.7
2018-Feb-14 07:30N 30°01' W 093°58'1 2.1
2018-Feb-14 07:00N 30°00' W 093°57'3 5.8
2018-Feb-14 06:31N 29°59' W 093°54'3 5.3
2018-Feb-14 06:01N 29°58' W 093°51'3 5.4
2018-Feb-14 05:31N 29°59' W 093°48'3 6.2
2018-Feb-14 05:01N 30°01' W 093°45'3 5.8
2018-Feb-14 04:30N 30°03' W 093°43'3 5.5
2018-Feb-14 04:00N 30°04' W 093°40'3 5.8
2018-Feb-14 03:26N 30°04' W 093°36'2 5.2
2018-Feb-14 03:00N 30°04' W 093°34'2 4.7
2018-Feb-14 02:30N 30°04' W 093°31'3 6.1
2018-Feb-14 02:01N 30°04' W 093°28'3 6.3
2018-Feb-14 01:30N 30°04' W 093°24'3 5.7
2018-Feb-14 01:00N 30°04' W 093°21'3 5.6
2018-Feb-14 00:31N 30°06' W 093°18'3 5.2
2018-Feb-14 00:00N 30°04' W 093°16'2 3.5
2018-Feb-13 23:30N 30°02' W 093°16'3 5.6
2018-Feb-13 23:00N 30°00' W 093°14'3 6.2
2018-Feb-13 22:31N 29°58' W 093°11'3 5.8
2018-Feb-13 22:01N 29°56' W 093°09'  
Track history (hours):
 
Tides and Currents Weather Stations Pressure Air Temp Water Temp Dewpoint Dewpoint Depression Visibility Wind Speed Wind Dir Waves Ship Positions

Air Supply

Owner: Knowles, Clay A, Fruita, CO. More information available from US FCC via Universal Licensing System and Coast Guard Vessel Documentation Center.

Last reported at 2018-Feb-19 00:18 UTC. Time now 2018-Feb-19 07:52 UTC.
Position N 29°51' W 091°56'.

Length 36 m; draft 3 m.

Type: Towing. MMSI: 367375720.

Date/timePositionNaut miles runAvg speedWind from/ knotsBaromVisibWave heightAir tempDewpointWater temp
2018-Feb-19 00:18N 29°51' W 091°56'2 4.6
2018-Feb-18 23:51N 29°50' W 091°58'2 4.8
2018-Feb-18 23:30N 29°50' W 091°60'2 4.7
2018-Feb-18 23:00N 29°49' W 092°02'2 4.8
2018-Feb-18 22:30N 29°48' W 092°05'2 3.7
2018-Feb-18 22:00N 29°47' W 092°07'1 2.8
2018-Feb-18 21:30N 29°47' W 092°08'3 5.2
2018-Feb-18 21:00N 29°47' W 092°11'3 5.4
2018-Feb-18 20:30N 29°48' W 092°14'3 5.5
2018-Feb-18 20:00N 29°49' W 092°17'2 4.9
2018-Feb-18 19:30N 29°50' W 092°19'35 3.5
2018-Feb-18 09:22N 29°56' W 092°60'2 4.3
2018-Feb-18 09:00N 29°56' W 093°02'2 3.5
2018-Feb-18 08:31N 29°56' W 093°03'0 0.0
2018-Feb-18 07:58N 29°56' W 093°03'0 0.0
2018-Feb-18 07:30N 29°56' W 093°03'0 0.0
2018-Feb-18 07:01N 29°56' W 093°03'0 0.0
2018-Feb-18 06:30N 29°56' W 093°03'0 0.0
2018-Feb-18 06:01N 29°56' W 093°03'0 0.7
2018-Feb-18 05:30N 29°56' W 093°04'2 4.3
2018-Feb-18 05:00N 29°56' W 093°06'2 3.0
2018-Feb-18 04:29N 29°56' W 093°08'0 1.0
2018-Feb-18 04:01N 29°56' W 093°09'2 3.8
2018-Feb-18 03:31N 29°57' W 093°11'2 4.5
2018-Feb-18 03:00N 29°59' W 093°12'2 4.2
2018-Feb-18 02:31N 30°01' W 093°14'2 3.7
2018-Feb-18 02:00N 30°02' W 093°15'1 2.7
2018-Feb-18 01:31N 30°03' W 093°16'1 2.0
2018-Feb-18 01:00N 30°04' W 093°16'2 3.1
2018-Feb-18 00:31N 30°05' W 093°17'2 3.3
2018-Feb-18 00:00N 30°06' W 093°19'2 3.9
2018-Feb-17 23:31N 30°04' W 093°21'1 2.9
2018-Feb-17 23:01N 30°04' W 093°22'2 3.5
2018-Feb-17 22:30N 30°04' W 093°24'2 3.9
2018-Feb-17 22:00N 30°04' W 093°27'3 5.1
2018-Feb-17 21:30N 30°04' W 093°30'3 5.2
2018-Feb-17 21:00N 30°04' W 093°33'3 5.2
2018-Feb-17 20:30N 30°04' W 093°36'2 4.4
2018-Feb-17 20:00N 30°04' W 093°38'2 3.8
2018-Feb-17 19:30N 30°04' W 093°40'3 5.0
2018-Feb-17 19:00N 30°03' W 093°43'2 4.9
2018-Feb-17 18:30N 30°01' W 093°45'2 4.7
2018-Feb-17 18:00N 29°60' W 093°47'2 4.9
2018-Feb-17 17:30N 29°59' W 093°49'2 3.5
2018-Feb-17 17:00N 29°58' W 093°51'2 4.3
2018-Feb-17 16:30N 29°59' W 093°54'3 5.4
2018-Feb-17 16:00N 29°60' W 093°57'2 4.4
2018-Feb-17 15:31N 30°01' W 093°59'0 0.7
2018-Feb-17 15:00N 30°01' W 093°59'0 0.3
2018-Feb-17 14:30N 30°01' W 093°58'0 0.0
2018-Feb-17 14:00N 30°01' W 093°58'0 0.0
2018-Feb-17 13:30N 30°01' W 093°58'0 0.0
2018-Feb-17 12:59N 30°01' W 093°58'0 0.0
2018-Feb-17 12:30N 30°01' W 093°58'0 0.0
2018-Feb-17 12:00N 30°01' W 093°58'0 0.0
2018-Feb-17 11:30N 30°01' W 093°58'0 0.0
2018-Feb-17 11:00N 30°01' W 093°58'0 0.0
2018-Feb-17 10:30N 30°01' W 093°58'0 0.0
2018-Feb-17 10:00N 30°01' W 093°58'0 0.0
2018-Feb-17 09:30N 30°01' W 093°58'0 0.0
2018-Feb-17 09:00N 30°01' W 093°58'0 0.0
2018-Feb-17 08:30N 30°01' W 093°58'0 0.0
2018-Feb-17 08:00N 30°01' W 093°58'0 0.0
2018-Feb-17 07:30N 30°01' W 093°58'0 0.0
2018-Feb-17 07:00N 30°01' W 093°58'0 0.0
2018-Feb-17 06:30N 30°01' W 093°58'0 0.0
2018-Feb-17 06:00N 30°01' W 093°58'0 0.0
2018-Feb-17 05:30N 30°01' W 093°58'0 0.0
2018-Feb-17 05:00N 30°01' W 093°58'0 0.0
2018-Feb-17 04:30N 30°01' W 093°58'0 0.0
2018-Feb-17 04:00N 30°01' W 093°58'0 0.0
2018-Feb-17 03:30N 30°01' W 093°58'0 0.0
2018-Feb-17 03:00N 30°01' W 093°58'0 0.0
2018-Feb-17 02:30N 30°01' W 093°58'0 0.0
2018-Feb-17 02:00N 30°01' W 093°58'0 0.0
2018-Feb-17 01:30N 30°01' W 093°58'0 0.0
2018-Feb-17 01:00N 30°01' W 093°58'0 0.0
2018-Feb-17 00:30N 30°01' W 093°58'0 0.0
2018-Feb-17 00:00N 30°01' W 093°58'0 0.0
2018-Feb-16 23:29N 30°01' W 093°58'0 0.0
2018-Feb-16 23:00N 30°01' W 093°58'0 0.0
2018-Feb-16 22:30N 30°01' W 093°58'0 0.0
2018-Feb-16 22:00N 30°01' W 093°58'0 0.0
2018-Feb-16 21:30N 30°01' W 093°58'0 0.0
2018-Feb-16 21:00N 30°01' W 093°58'0 0.0
2018-Feb-16 20:30N 30°01' W 093°58'0 0.0
2018-Feb-16 20:00N 30°01' W 093°58'0 0.0
2018-Feb-16 19:30N 30°01' W 093°58'0 0.0
2018-Feb-16 19:00N 30°01' W 093°58'0 0.0
2018-Feb-16 18:30N 30°01' W 093°58'0 0.0
2018-Feb-16 18:00N 30°01' W 093°58'0 0.0
2018-Feb-16 17:31N 30°01' W 093°58'0 0.0
2018-Feb-16 17:00N 30°01' W 093°58'0 0.0
2018-Feb-16 16:30N 30°01' W 093°58'0 0.0
2018-Feb-16 16:00N 30°01' W 093°58'0 0.0
2018-Feb-16 15:30N 30°01' W 093°58'0 0.0
2018-Feb-16 15:01N 30°01' W 093°58'0 0.0
2018-Feb-16 14:31N 30°01' W 093°58'0 0.0
2018-Feb-16 14:01N 30°01' W 093°58'0 0.0
2018-Feb-16 13:30N 30°01' W 093°58'0 0.0
2018-Feb-16 13:00N 30°01' W 093°58'0 0.0
2018-Feb-16 12:31N 30°01' W 093°58'0 0.0
2018-Feb-16 12:00N 30°01' W 093°58'0 0.0
2018-Feb-16 11:31N 30°01' W 093°58'0 0.0
2018-Feb-16 11:01N 30°01' W 093°58'0 0.0
2018-Feb-16 10:31N 30°01' W 093°58'0 0.0
2018-Feb-16 10:01N 30°01' W 093°58'0 0.0
2018-Feb-16 09:31N 30°01' W 093°58'0 0.0
2018-Feb-16 09:01N 30°01' W 093°58'0 0.0
2018-Feb-16 08:31N 30°01' W 093°58'0 0.0
2018-Feb-16 07:59N 30°01' W 093°58'0 0.0
2018-Feb-16 07:31N 30°01' W 093°58'0 0.0
2018-Feb-16 07:00N 30°01' W 093°58'0 0.0
2018-Feb-16 06:30N 30°01' W 093°58'0 0.0
2018-Feb-16 06:01N 30°01' W 093°58'0 0.0
2018-Feb-16 05:30N 30°01' W 093°58'0 0.0
2018-Feb-16 05:01N 30°01' W 093°58'0 0.0
2018-Feb-16 04:30N 30°01' W 093°58'0 0.0
2018-Feb-16 04:00N 30°01' W 093°58'0 0.0
2018-Feb-16 03:30N 30°01' W 093°58'0 0.0
2018-Feb-16 03:00N 30°01' W 093°58'0 0.0
2018-Feb-16 02:31N 30°01' W 093°58'0 0.0
2018-Feb-16 01:59N 30°01' W 093°58'0 0.0
2018-Feb-16 01:31N 30°01' W 093°58'0 0.0
2018-Feb-16 01:00N 30°01' W 093°58'0 0.0
2018-Feb-16 00:30N 30°01' W 093°58'0 0.0
2018-Feb-16 00:00N 30°01' W 093°58'0 0.0
2018-Feb-15 23:31N 30°01' W 093°58'0 0.0
2018-Feb-15 23:01N 30°01' W 093°58'0 0.0
2018-Feb-15 22:30N 30°01' W 093°58'0 0.0
2018-Feb-15 22:00N 30°01' W 093°58'0 0.0
2018-Feb-15 21:30N 30°01' W 093°58'0 0.0
2018-Feb-15 21:00N 30°01' W 093°58'0 0.0
2018-Feb-15 20:30N 30°01' W 093°58'0 0.0
2018-Feb-15 20:00N 30°01' W 093°58'0 0.0
2018-Feb-15 19:31N 30°01' W 093°58'0 0.0
2018-Feb-15 19:01N 30°01' W 093°58'0 0.0
2018-Feb-15 18:30N 30°01' W 093°58'0 0.0
2018-Feb-15 18:01N 30°01' W 093°58'0 0.0
2018-Feb-15 17:30N 30°01' W 093°58'0 0.0
2018-Feb-15 17:00N 30°01' W 093°58'0 0.5
2018-Feb-15 16:30N 30°01' W 093°58'0 0.0
2018-Feb-15 16:00N 30°01' W 093°58'1 1.9
2018-Feb-15 15:30N 30°01' W 093°59'0 0.1
2018-Feb-15 15:01N 30°01' W 093°59'0 0.0
2018-Feb-15 14:31N 30°01' W 093°59'0 0.0
2018-Feb-15 14:01N 30°01' W 093°59'0 0.0
2018-Feb-15 13:31N 30°01' W 093°59'0 0.0
2018-Feb-15 13:01N 30°01' W 093°59'0 0.0
2018-Feb-15 12:31N 30°01' W 093°59'0 0.0
2018-Feb-15 12:01N 30°01' W 093°59'0 0.0
2018-Feb-15 11:30N 30°01' W 093°59'0 0.0
2018-Feb-15 11:00N 30°01' W 093°59'0 0.0
2018-Feb-15 10:30N 30°01' W 093°59'0 0.0
2018-Feb-15 10:01N 30°01' W 093°59'0 0.0
2018-Feb-15 09:31N 30°01' W 093°59'0 0.0
2018-Feb-15 09:00N 30°01' W 093°59'0 0.0
2018-Feb-15 08:31N 30°01' W 093°59'0 0.0
2018-Feb-15 08:01N 30°01' W 093°59'0 0.0
2018-Feb-15 07:30N 30°01' W 093°59'0 0.0
2018-Feb-15 07:01N 30°01' W 093°59'0 0.0
2018-Feb-15 06:30N 30°01' W 093°59'0 0.0
2018-Feb-15 06:01N 30°01' W 093°59'0 0.0
2018-Feb-15 05:31N 30°01' W 093°59'0 0.0
2018-Feb-15 05:01N 30°01' W 093°59'0 0.0
2018-Feb-15 04:31N 30°01' W 093°59'0 0.0
2018-Feb-15 04:00N 30°01' W 093°59'0 0.0
2018-Feb-15 03:30N 30°01' W 093°59'0 0.0
2018-Feb-15 03:01N 30°01' W 093°59'0 0.0
2018-Feb-15 02:30N 30°01' W 093°59'0 0.0
2018-Feb-15 02:00N 30°01' W 093°59'0 0.0
2018-Feb-15 01:30N 30°01' W 093°59'0 0.0
2018-Feb-15 01:01N 30°01' W 093°59'0 0.0
2018-Feb-15 00:30N 30°01' W 093°59'0 0.0
2018-Feb-15 00:01N 30°01' W 093°59'0 0.0
2018-Feb-14 23:31N 30°01' W 093°59'0 0.0
2018-Feb-14 23:01N 30°01' W 093°59'0 0.0
2018-Feb-14 22:31N 30°01' W 093°59'0 0.0
2018-Feb-14 22:00N 30°01' W 093°59'0 0.0
2018-Feb-14 21:31N 30°01' W 093°59'0 0.0
2018-Feb-14 21:00N 30°01' W 093°59'0 0.0
2018-Feb-14 20:30N 30°01' W 093°59'0 0.0
2018-Feb-14 20:01N 30°01' W 093°59'0 0.0
2018-Feb-14 19:30N 30°01' W 093°59'0 0.1
2018-Feb-14 19:01N 30°01' W 093°59'0 0.1
2018-Feb-14 18:31N 30°01' W 093°59'0 0.0
2018-Feb-14 18:01N 30°01' W 093°59'0 0.0
2018-Feb-14 17:31N 30°01' W 093°59'0 0.0
2018-Feb-14 17:01N 30°01' W 093°59'0 0.0
2018-Feb-14 16:30N 30°01' W 093°59'0 0.0
2018-Feb-14 16:01N 30°01' W 093°59'0 0.0
2018-Feb-14 15:31N 30°01' W 093°59'0 0.3
2018-Feb-14 15:01N 30°01' W 093°59'0 0.3
2018-Feb-14 14:31N 30°01' W 093°59'0 0.2
2018-Feb-14 13:57N 30°01' W 093°59'0 0.0
2018-Feb-14 13:25N 30°01' W 093°59'0 0.0
2018-Feb-14 12:59N 30°01' W 093°59'0 0.0
2018-Feb-14 12:28N 30°01' W 093°59'0 0.0
2018-Feb-14 11:59N 30°01' W 093°59'0 0.0
2018-Feb-14 11:27N 30°01' W 093°59'0 0.0
2018-Feb-14 11:00N 30°01' W 093°59'0 0.0
2018-Feb-14 10:30N 30°01' W 093°59'0 0.0
2018-Feb-14 10:01N 30°01' W 093°59'0 0.0
2018-Feb-14 09:30N 30°01' W 093°59'0 0.0
2018-Feb-14 09:01N 30°01' W 093°59'1 1.4
2018-Feb-14 08:31N 30°01' W 093°59'0 0.2
2018-Feb-14 08:01N 30°01' W 093°59'1 1.7
2018-Feb-14 07:30N 30°01' W 093°58'1 2.1
2018-Feb-14 07:00N 30°00' W 093°57'3 5.8
2018-Feb-14 06:31N 29°59' W 093°54'3 5.3
2018-Feb-14 06:01N 29°58' W 093°51'3 5.4
2018-Feb-14 05:31N 29°59' W 093°48'3 6.2
2018-Feb-14 05:01N 30°01' W 093°45'3 5.8
2018-Feb-14 04:30N 30°03' W 093°43'3 5.5
2018-Feb-14 04:00N 30°04' W 093°40'3 5.8
2018-Feb-14 03:26N 30°04' W 093°36'2 5.2
2018-Feb-14 03:00N 30°04' W 093°34'2 4.7
2018-Feb-14 02:30N 30°04' W 093°31'3 6.1
2018-Feb-14 02:01N 30°04' W 093°28'3 6.3
2018-Feb-14 01:30N 30°04' W 093°24'3 5.7
2018-Feb-14 01:00N 30°04' W 093°21'3 5.6
2018-Feb-14 00:31N 30°06' W 093°18'3 5.2
2018-Feb-14 00:00N 30°04' W 093°16'2 3.5
2018-Feb-13 23:30N 30°02' W 093°16'3 5.6
2018-Feb-13 23:00N 30°00' W 093°14'3 6.2
2018-Feb-13 22:31N 29°58' W 093°11'3 5.8
2018-Feb-13 22:01N 29°56' W 093°09'  

Dump ship's entire track history